sensor_id;sensor_type;location;lat;lon;timestamp;P1;durP1;ratioP1;P2;durP2;ratioP2
77117;SDS011;66072;50.238;19.228;2023-03-29T00:02:04;9.90;;;6.30;;
77117;SDS011;66072;50.238;19.228;2023-03-29T00:04:32;17.00;;;8.80;;
77117;SDS011;66072;50.238;19.228;2023-03-29T00:07:00;13.80;;;7.80;;
77117;SDS011;66072;50.238;19.228;2023-03-29T00:09:27;24.50;;;11.90;;
77117;SDS011;66072;50.238;19.228;2023-03-29T00:11:55;17.90;;;9.50;;
77117;SDS011;66072;50.238;19.228;2023-03-29T00:14:22;12.40;;;6.50;;
77117;SDS011;66072;50.238;19.228;2023-03-29T00:16:50;18.40;;;8.50;;
77117;SDS011;66072;50.238;19.228;2023-03-29T00:19:18;27.40;;;15.30;;
77117;SDS011;66072;50.238;19.228;2023-03-29T00:21:45;26.00;;;14.60;;
77117;SDS011;66072;50.238;19.228;2023-03-29T00:24:13;11.00;;;5.90;;
77117;SDS011;66072;50.238;19.228;2023-03-29T00:26:40;23.90;;;12.90;;
77117;SDS011;66072;50.238;19.228;2023-03-29T00:29:08;34.20;;;17.60;;
77117;SDS011;66072;50.238;19.228;2023-03-29T00:31:36;23.40;;;11.90;;
77117;SDS011;66072;50.238;19.228;2023-03-29T00:34:03;28.30;;;14.00;;
77117;SDS011;66072;50.238;19.228;2023-03-29T00:36:31;25.00;;;13.20;;
77117;SDS011;66072;50.238;19.228;2023-03-29T00:38:58;40.90;;;21.10;;
77117;SDS011;66072;50.238;19.228;2023-03-29T00:41:26;39.50;;;21.20;;
77117;SDS011;66072;50.238;19.228;2023-03-29T00:44:01;35.40;;;18.40;;
77117;SDS011;66072;50.238;19.228;2023-03-29T00:46:30;28.70;;;14.30;;
77117;SDS011;66072;50.238;19.228;2023-03-29T00:49:03;16.20;;;7.80;;
77117;SDS011;66072;50.238;19.228;2023-03-29T00:51:35;36.60;;;17.60;;
77117;SDS011;66072;50.238;19.228;2023-03-29T00:54:07;18.80;;;9.60;;
77117;SDS011;66072;50.238;19.228;2023-03-29T00:56:39;41.90;;;21.10;;
77117;SDS011;66072;50.238;19.228;2023-03-29T00:59:21;30.20;;;15.20;;
77117;SDS011;66072;50.238;19.228;2023-03-29T01:02:04;29.70;;;15.80;;
77117;SDS011;66072;50.238;19.228;2023-03-29T01:07:17;29.90;;;14.40;;
77117;SDS011;66072;50.238;19.228;2023-03-29T01:09:53;22.90;;;12.40;;
77117;SDS011;66072;50.238;19.228;2023-03-29T01:12:28;17.30;;;10.70;;
77117;SDS011;66072;50.238;19.228;2023-03-29T01:15:02;26.80;;;13.90;;
77117;SDS011;66072;50.238;19.228;2023-03-29T01:17:35;30.80;;;15.80;;
77117;SDS011;66072;50.238;19.228;2023-03-29T01:20:07;26.30;;;11.30;;
77117;SDS011;66072;50.238;19.228;2023-03-29T01:28:20;28.60;;;13.90;;
77117;SDS011;66072;50.238;19.228;2023-03-29T01:30:51;21.40;;;10.20;;
77117;SDS011;66072;50.238;19.228;2023-03-29T01:33:33;21.70;;;10.80;;
77117;SDS011;66072;50.238;19.228;2023-03-29T01:36:11;32.70;;;16.90;;
77117;SDS011;66072;50.238;19.228;2023-03-29T01:41:33;24.40;;;13.20;;
77117;SDS011;66072;50.238;19.228;2023-03-29T01:44:14;28.20;;;13.20;;
77117;SDS011;66072;50.238;19.228;2023-03-29T01:46:46;30.30;;;16.40;;
77117;SDS011;66072;50.238;19.228;2023-03-29T01:49:26;29.00;;;13.70;;
77117;SDS011;66072;50.238;19.228;2023-03-29T01:55:12;21.60;;;12.40;;
77117;SDS011;66072;50.238;19.228;2023-03-29T01:57:43;31.00;;;15.90;;
77117;SDS011;66072;50.238;19.228;2023-03-29T02:00:13;28.30;;;13.60;;
77117;SDS011;66072;50.238;19.228;2023-03-29T02:02:43;24.30;;;13.50;;
77117;SDS011;66072;50.238;19.228;2023-03-29T02:05:13;32.80;;;14.70;;
77117;SDS011;66072;50.238;19.228;2023-03-29T02:07:42;25.60;;;13.70;;
77117;SDS011;66072;50.238;19.228;2023-03-29T02:10:12;33.50;;;14.50;;
77117;SDS011;66072;50.238;19.228;2023-03-29T02:12:42;21.60;;;10.60;;
77117;SDS011;66072;50.238;19.228;2023-03-29T02:15:11;20.70;;;11.20;;
77117;SDS011;66072;50.238;19.228;2023-03-29T02:17:40;24.30;;;12.10;;
77117;SDS011;66072;50.238;19.228;2023-03-29T02:22:59;20.10;;;10.20;;
77117;SDS011;66072;50.238;19.228;2023-03-29T02:25:30;18.80;;;10.70;;
77117;SDS011;66072;50.238;19.228;2023-03-29T02:27:58;19.00;;;9.80;;
77117;SDS011;66072;50.238;19.228;2023-03-29T02:30:28;25.50;;;13.80;;
77117;SDS011;66072;50.238;19.228;2023-03-29T02:33:05;24.50;;;12.00;;
77117;SDS011;66072;50.238;19.228;2023-03-29T02:36:14;25.70;;;12.40;;
77117;SDS011;66072;50.238;19.228;2023-03-29T02:38:38;28.00;;;13.60;;
77117;SDS011;66072;50.238;19.228;2023-03-29T02:41:07;18.50;;;8.50;;
77117;SDS011;66072;50.238;19.228;2023-03-29T02:43:36;21.00;;;12.00;;
77117;SDS011;66072;50.238;19.228;2023-03-29T02:46:06;40.20;;;19.00;;
77117;SDS011;66072;50.238;19.228;2023-03-29T02:48:34;31.20;;;14.60;;
77117;SDS011;66072;50.238;19.228;2023-03-29T02:51:06;27.70;;;12.80;;
77117;SDS011;66072;50.238;19.228;2023-03-29T02:53:41;31.90;;;13.30;;
77117;SDS011;66072;50.238;19.228;2023-03-29T02:56:15;25.50;;;12.70;;
77117;SDS011;66072;50.238;19.228;2023-03-29T02:58:42;22.00;;;12.80;;
77117;SDS011;66072;50.238;19.228;2023-03-29T03:01:10;22.50;;;10.60;;
77117;SDS011;66072;50.238;19.228;2023-03-29T03:03:38;29.40;;;15.60;;
77117;SDS011;66072;50.238;19.228;2023-03-29T03:06:05;38.40;;;20.40;;
77117;SDS011;66072;50.238;19.228;2023-03-29T03:08:33;31.30;;;15.30;;
77117;SDS011;66072;50.238;19.228;2023-03-29T03:11:01;25.70;;;12.10;;
77117;SDS011;66072;50.238;19.228;2023-03-29T03:13:29;25.70;;;13.30;;
77117;SDS011;66072;50.238;19.228;2023-03-29T03:15:57;34.80;;;18.90;;
77117;SDS011;66072;50.238;19.228;2023-03-29T03:18:24;37.20;;;18.70;;
77117;SDS011;66072;50.238;19.228;2023-03-29T03:20:58;32.70;;;14.60;;
77117;SDS011;66072;50.238;19.228;2023-03-29T03:23:27;34.60;;;15.00;;
77117;SDS011;66072;50.238;19.228;2023-03-29T03:25:54;30.60;;;16.70;;
77117;SDS011;66072;50.238;19.228;2023-03-29T03:28:23;37.90;;;16.70;;
77117;SDS011;66072;50.238;19.228;2023-03-29T03:30:50;22.20;;;10.90;;
77117;SDS011;66072;50.238;19.228;2023-03-29T03:33:18;33.30;;;14.30;;
77117;SDS011;66072;50.238;19.228;2023-03-29T03:35:46;40.90;;;20.00;;
77117;SDS011;66072;50.238;19.228;2023-03-29T03:38:13;38.10;;;19.00;;
77117;SDS011;66072;50.238;19.228;2023-03-29T03:40:41;36.80;;;18.00;;
77117;SDS011;66072;50.238;19.228;2023-03-29T03:43:09;36.20;;;16.80;;
77117;SDS011;66072;50.238;19.228;2023-03-29T03:45:36;44.70;;;20.20;;
77117;SDS011;66072;50.238;19.228;2023-03-29T03:48:04;34.60;;;17.90;;
77117;SDS011;66072;50.238;19.228;2023-03-29T03:50:32;22.20;;;11.30;;
77117;SDS011;66072;50.238;19.228;2023-03-29T03:53:00;31.40;;;17.20;;
77117;SDS011;66072;50.238;19.228;2023-03-29T03:55:27;39.10;;;19.00;;
77117;SDS011;66072;50.238;19.228;2023-03-29T03:57:55;41.40;;;18.30;;
77117;SDS011;66072;50.238;19.228;2023-03-29T04:00:23;46.80;;;21.50;;
77117;SDS011;66072;50.238;19.228;2023-03-29T04:02:51;38.30;;;17.70;;
77117;SDS011;66072;50.238;19.228;2023-03-29T04:05:19;43.70;;;21.60;;
77117;SDS011;66072;50.238;19.228;2023-03-29T04:07:47;33.30;;;14.60;;
77117;SDS011;66072;50.238;19.228;2023-03-29T04:10:14;42.50;;;19.90;;
77117;SDS011;66072;50.238;19.228;2023-03-29T04:12:42;31.40;;;16.50;;
77117;SDS011;66072;50.238;19.228;2023-03-29T04:15:10;52.90;;;22.00;;
77117;SDS011;66072;50.238;19.228;2023-03-29T04:17:38;60.70;;;26.70;;
77117;SDS011;66072;50.238;19.228;2023-03-29T04:20:06;36.40;;;16.00;;
77117;SDS011;66072;50.238;19.228;2023-03-29T04:22:34;33.80;;;17.30;;
77117;SDS011;66072;50.238;19.228;2023-03-29T04:25:02;33.70;;;16.70;;
77117;SDS011;66072;50.238;19.228;2023-03-29T04:27:29;28.40;;;13.70;;
77117;SDS011;66072;50.238;19.228;2023-03-29T04:29:57;31.40;;;14.60;;
77117;SDS011;66072;50.238;19.228;2023-03-29T04:32:25;26.80;;;14.20;;
77117;SDS011;66072;50.238;19.228;2023-03-29T04:34:52;18.60;;;9.30;;
77117;SDS011;66072;50.238;19.228;2023-03-29T04:37:20;31.70;;;18.40;;
77117;SDS011;66072;50.238;19.228;2023-03-29T04:39:48;41.20;;;18.90;;
77117;SDS011;66072;50.238;19.228;2023-03-29T04:42:16;28.70;;;14.10;;
77117;SDS011;66072;50.238;19.228;2023-03-29T04:44:43;37.50;;;17.00;;
77117;SDS011;66072;50.238;19.228;2023-03-29T04:47:11;31.70;;;16.10;;
77117;SDS011;66072;50.238;19.228;2023-03-29T04:49:38;39.40;;;18.60;;
77117;SDS011;66072;50.238;19.228;2023-03-29T04:52:06;30.70;;;14.60;;
77117;SDS011;66072;50.238;19.228;2023-03-29T04:54:34;45.10;;;19.30;;
77117;SDS011;66072;50.238;19.228;2023-03-29T04:57:03;46.40;;;22.20;;
77117;SDS011;66072;50.238;19.228;2023-03-29T04:59:31;42.80;;;21.00;;
77117;SDS011;66072;50.238;19.228;2023-03-29T05:01:59;32.50;;;16.20;;
77117;SDS011;66072;50.238;19.228;2023-03-29T05:04:27;46.70;;;23.80;;
77117;SDS011;66072;50.238;19.228;2023-03-29T05:06:55;47.70;;;24.60;;
77117;SDS011;66072;50.238;19.228;2023-03-29T05:09:23;37.20;;;18.50;;
77117;SDS011;66072;50.238;19.228;2023-03-29T05:11:51;45.40;;;25.30;;
77117;SDS011;66072;50.238;19.228;2023-03-29T05:14:19;45.90;;;25.50;;
77117;SDS011;66072;50.238;19.228;2023-03-29T05:16:46;46.40;;;27.60;;
77117;SDS011;66072;50.238;19.228;2023-03-29T05:19:14;63.30;;;31.30;;
77117;SDS011;66072;50.238;19.228;2023-03-29T05:21:42;52.20;;;28.90;;
77117;SDS011;66072;50.238;19.228;2023-03-29T05:24:11;51.40;;;29.60;;
77117;SDS011;66072;50.238;19.228;2023-03-29T05:26:39;50.90;;;29.90;;
77117;SDS011;66072;50.238;19.228;2023-03-29T05:29:07;48.40;;;27.10;;
77117;SDS011;66072;50.238;19.228;2023-03-29T05:31:34;56.30;;;29.90;;
77117;SDS011;66072;50.238;19.228;2023-03-29T05:34:03;57.50;;;30.90;;
77117;SDS011;66072;50.238;19.228;2023-03-29T05:36:30;58.20;;;29.20;;
77117;SDS011;66072;50.238;19.228;2023-03-29T05:38:58;52.50;;;28.40;;
77117;SDS011;66072;50.238;19.228;2023-03-29T05:41:26;40.10;;;23.20;;
77117;SDS011;66072;50.238;19.228;2023-03-29T05:43:54;40.20;;;21.30;;
77117;SDS011;66072;50.238;19.228;2023-03-29T05:46:22;34.70;;;20.40;;
77117;SDS011;66072;50.238;19.228;2023-03-29T05:48:50;39.80;;;21.50;;
77117;SDS011;66072;50.238;19.228;2023-03-29T05:51:17;37.80;;;20.80;;
77117;SDS011;66072;50.238;19.228;2023-03-29T05:53:45;37.50;;;20.00;;
77117;SDS011;66072;50.238;19.228;2023-03-29T05:56:13;35.00;;;21.40;;
77117;SDS011;66072;50.238;19.228;2023-03-29T05:58:41;36.10;;;20.80;;
77117;SDS011;66072;50.238;19.228;2023-03-29T06:01:12;33.70;;;20.10;;
77117;SDS011;66072;50.238;19.228;2023-03-29T06:03:40;20.30;;;12.80;;
77117;SDS011;66072;50.238;19.228;2023-03-29T06:06:07;23.20;;;13.30;;
77117;SDS011;66072;50.238;19.228;2023-03-29T06:08:35;25.80;;;15.60;;
77117;SDS011;66072;50.238;19.228;2023-03-29T06:11:04;19.00;;;10.90;;
77117;SDS011;66072;50.238;19.228;2023-03-29T06:13:33;17.90;;;10.20;;
77117;SDS011;66072;50.238;19.228;2023-03-29T06:16:00;27.30;;;15.90;;
77117;SDS011;66072;50.238;19.228;2023-03-29T06:18:28;29.40;;;15.00;;
77117;SDS011;66072;50.238;19.228;2023-03-29T06:20:56;20.20;;;12.10;;
77117;SDS011;66072;50.238;19.228;2023-03-29T06:23:24;24.00;;;14.20;;
77117;SDS011;66072;50.238;19.228;2023-03-29T06:25:51;16.60;;;9.90;;
77117;SDS011;66072;50.238;19.228;2023-03-29T06:28:19;20.60;;;11.50;;
77117;SDS011;66072;50.238;19.228;2023-03-29T06:30:48;20.10;;;12.30;;
77117;SDS011;66072;50.238;19.228;2023-03-29T06:33:16;21.00;;;11.80;;
77117;SDS011;66072;50.238;19.228;2023-03-29T06:35:45;12.60;;;8.20;;
77117;SDS011;66072;50.238;19.228;2023-03-29T06:38:14;20.30;;;10.50;;
77117;SDS011;66072;50.238;19.228;2023-03-29T06:40:42;13.60;;;7.60;;
77117;SDS011;66072;50.238;19.228;2023-03-29T06:43:10;13.20;;;8.00;;
77117;SDS011;66072;50.238;19.228;2023-03-29T06:45:37;12.00;;;7.40;;
77117;SDS011;66072;50.238;19.228;2023-03-29T06:48:06;15.80;;;9.00;;
77117;SDS011;66072;50.238;19.228;2023-03-29T06:50:34;22.00;;;12.70;;
77117;SDS011;66072;50.238;19.228;2023-03-29T06:53:02;23.50;;;12.80;;
77117;SDS011;66072;50.238;19.228;2023-03-29T06:55:30;16.90;;;11.30;;
77117;SDS011;66072;50.238;19.228;2023-03-29T06:57:58;22.00;;;12.70;;
77117;SDS011;66072;50.238;19.228;2023-03-29T07:00:28;22.70;;;12.90;;
77117;SDS011;66072;50.238;19.228;2023-03-29T07:02:57;22.00;;;11.70;;
77117;SDS011;66072;50.238;19.228;2023-03-29T07:05:25;17.30;;;10.10;;
77117;SDS011;66072;50.238;19.228;2023-03-29T07:07:54;21.30;;;11.00;;
77117;SDS011;66072;50.238;19.228;2023-03-29T07:10:29;16.10;;;9.90;;
77117;SDS011;66072;50.238;19.228;2023-03-29T07:12:59;15.90;;;9.10;;
77117;SDS011;66072;50.238;19.228;2023-03-29T07:15:28;13.00;;;7.60;;
77117;SDS011;66072;50.238;19.228;2023-03-29T07:17:56;13.60;;;7.60;;
77117;SDS011;66072;50.238;19.228;2023-03-29T07:20:24;9.30;;;5.50;;
77117;SDS011;66072;50.238;19.228;2023-03-29T07:22:52;12.10;;;6.60;;
77117;SDS011;66072;50.238;19.228;2023-03-29T07:25:20;14.20;;;6.90;;
77117;SDS011;66072;50.238;19.228;2023-03-29T07:27:49;6.30;;;4.90;;
77117;SDS011;66072;50.238;19.228;2023-03-29T07:30:18;12.60;;;6.80;;
77117;SDS011;66072;50.238;19.228;2023-03-29T07:32:48;11.70;;;6.70;;
77117;SDS011;66072;50.238;19.228;2023-03-29T07:35:17;10.00;;;6.60;;
77117;SDS011;66072;50.238;19.228;2023-03-29T07:37:45;13.30;;;8.30;;
77117;SDS011;66072;50.238;19.228;2023-03-29T07:40:13;14.80;;;8.20;;
77117;SDS011;66072;50.238;19.228;2023-03-29T07:42:46;11.50;;;5.90;;
77117;SDS011;66072;50.238;19.228;2023-03-29T07:45:15;13.10;;;8.20;;
77117;SDS011;66072;50.238;19.228;2023-03-29T07:47:43;13.30;;;7.40;;
77117;SDS011;66072;50.238;19.228;2023-03-29T07:50:11;13.20;;;7.10;;
77117;SDS011;66072;50.238;19.228;2023-03-29T07:52:38;12.20;;;7.20;;
77117;SDS011;66072;50.238;19.228;2023-03-29T07:55:07;13.40;;;7.50;;
77117;SDS011;66072;50.238;19.228;2023-03-29T07:57:36;13.40;;;7.80;;
77117;SDS011;66072;50.238;19.228;2023-03-29T08:00:06;13.80;;;8.90;;
77117;SDS011;66072;50.238;19.228;2023-03-29T08:02:35;12.20;;;6.80;;
77117;SDS011;66072;50.238;19.228;2023-03-29T08:05:02;16.10;;;8.00;;
77117;SDS011;66072;50.238;19.228;2023-03-29T08:07:30;14.00;;;6.40;;
77117;SDS011;66072;50.238;19.228;2023-03-29T08:09:58;10.50;;;7.50;;
77117;SDS011;66072;50.238;19.228;2023-03-29T08:12:25;7.80;;;4.00;;
77117;SDS011;66072;50.238;19.228;2023-03-29T08:14:53;6.70;;;4.00;;
77117;SDS011;66072;50.238;19.228;2023-03-29T08:17:21;10.00;;;5.90;;
77117;SDS011;66072;50.238;19.228;2023-03-29T08:19:48;12.00;;;6.00;;
77117;SDS011;66072;50.238;19.228;2023-03-29T08:22:17;8.10;;;4.50;;
77117;SDS011;66072;50.238;19.228;2023-03-29T08:24:45;11.30;;;5.20;;
77117;SDS011;66072;50.238;19.228;2023-03-29T08:27:12;11.10;;;5.90;;
77117;SDS011;66072;50.238;19.228;2023-03-29T08:29:40;5.90;;;3.90;;
77117;SDS011;66072;50.238;19.228;2023-03-29T08:32:08;4.80;;;3.00;;
77117;SDS011;66072;50.238;19.228;2023-03-29T08:34:35;8.70;;;4.70;;
77117;SDS011;66072;50.238;19.228;2023-03-29T08:37:03;11.20;;;5.30;;
77117;SDS011;66072;50.238;19.228;2023-03-29T08:39:31;5.40;;;3.10;;
77117;SDS011;66072;50.238;19.228;2023-03-29T08:42:03;8.30;;;4.60;;
77117;SDS011;66072;50.238;19.228;2023-03-29T08:47:22;8.30;;;4.80;;
77117;SDS011;66072;50.238;19.228;2023-03-29T08:50:16;7.90;;;4.30;;
77117;SDS011;66072;50.238;19.228;2023-03-29T08:52:47;6.50;;;3.20;;
77117;SDS011;66072;50.238;19.228;2023-03-29T08:55:37;8.40;;;4.10;;
77117;SDS011;66072;50.238;19.228;2023-03-29T08:58:13;5.90;;;3.10;;
77117;SDS011;66072;50.238;19.228;2023-03-29T09:00:54;4.90;;;2.80;;
77117;SDS011;66072;50.238;19.228;2023-03-29T09:03:31;3.80;;;2.30;;
77117;SDS011;66072;50.238;19.228;2023-03-29T09:06:04;4.80;;;2.70;;
77117;SDS011;66072;50.238;19.228;2023-03-29T09:08:36;6.10;;;3.20;;
77117;SDS011;66072;50.238;19.228;2023-03-29T09:22:33;3.90;;;1.50;;
77117;SDS011;66072;50.238;19.228;2023-03-29T09:28:33;3.90;;;2.10;;
77117;SDS011;66072;50.238;19.228;2023-03-29T09:31:20;3.00;;;1.70;;
77117;SDS011;66072;50.238;19.228;2023-03-29T09:33:58;3.70;;;1.80;;
77117;SDS011;66072;50.238;19.228;2023-03-29T09:36:36;5.00;;;2.50;;
77117;SDS011;66072;50.238;19.228;2023-03-29T09:39:29;4.80;;;2.30;;
77117;SDS011;66072;50.238;19.228;2023-03-29T09:41:58;4.10;;;1.60;;
77117;SDS011;66072;50.238;19.228;2023-03-29T09:44:30;3.70;;;2.50;;
77117;SDS011;66072;50.238;19.228;2023-03-29T09:47:07;4.70;;;2.20;;
77117;SDS011;66072;50.238;19.228;2023-03-29T09:49:45;5.90;;;2.70;;
77117;SDS011;66072;50.238;19.228;2023-03-29T09:52:15;3.10;;;1.70;;
77117;SDS011;66072;50.238;19.228;2023-03-29T09:54:44;5.30;;;2.90;;
77117;SDS011;66072;50.238;19.228;2023-03-29T09:57:12;5.30;;;2.40;;
77117;SDS011;66072;50.238;19.228;2023-03-29T09:59:43;5.40;;;3.30;;
77117;SDS011;66072;50.238;19.228;2023-03-29T10:02:12;7.20;;;3.40;;
77117;SDS011;66072;50.238;19.228;2023-03-29T10:04:40;4.20;;;2.80;;
77117;SDS011;66072;50.238;19.228;2023-03-29T10:07:12;5.00;;;2.50;;
77117;SDS011;66072;50.238;19.228;2023-03-29T10:09:44;5.30;;;3.00;;
77117;SDS011;66072;50.238;19.228;2023-03-29T10:12:12;5.10;;;2.50;;
77117;SDS011;66072;50.238;19.228;2023-03-29T10:14:44;5.80;;;3.20;;
77117;SDS011;66072;50.238;19.228;2023-03-29T10:22:21;4.50;;;2.70;;
77117;SDS011;66072;50.238;19.228;2023-03-29T10:24:52;5.40;;;2.80;;
77117;SDS011;66072;50.238;19.228;2023-03-29T10:27:22;4.60;;;3.00;;
77117;SDS011;66072;50.238;19.228;2023-03-29T10:29:52;5.30;;;3.10;;
77117;SDS011;66072;50.238;19.228;2023-03-29T10:32:27;5.60;;;3.10;;
77117;SDS011;66072;50.238;19.228;2023-03-29T10:35:02;5.90;;;3.40;;
77117;SDS011;66072;50.238;19.228;2023-03-29T10:37:42;5.40;;;3.60;;
77117;SDS011;66072;50.238;19.228;2023-03-29T10:40:18;4.20;;;2.40;;
77117;SDS011;66072;50.238;19.228;2023-03-29T10:42:48;4.80;;;2.60;;
77117;SDS011;66072;50.238;19.228;2023-03-29T10:45:18;5.20;;;3.00;;
77117;SDS011;66072;50.238;19.228;2023-03-29T10:47:50;4.60;;;2.60;;
77117;SDS011;66072;50.238;19.228;2023-03-29T10:50:17;5.30;;;2.60;;
77117;SDS011;66072;50.238;19.228;2023-03-29T10:52:45;5.10;;;3.00;;
77117;SDS011;66072;50.238;19.228;2023-03-29T10:55:13;4.90;;;2.60;;
77117;SDS011;66072;50.238;19.228;2023-03-29T11:03:35;4.80;;;2.90;;
77117;SDS011;66072;50.238;19.228;2023-03-29T11:08:55;4.40;;;2.80;;
77117;SDS011;66072;50.238;19.228;2023-03-29T11:19:42;5.20;;;2.70;;
77117;SDS011;66072;50.238;19.228;2023-03-29T11:22:29;4.70;;;3.00;;
77117;SDS011;66072;50.238;19.228;2023-03-29T11:25:49;3.70;;;2.20;;
77117;SDS011;66072;50.238;19.228;2023-03-29T11:30:56;4.70;;;2.50;;
77117;SDS011;66072;50.238;19.228;2023-03-29T11:33:35;4.00;;;2.00;;
77117;SDS011;66072;50.238;19.228;2023-03-29T11:36:23;5.00;;;2.60;;
77117;SDS011;66072;50.238;19.228;2023-03-29T11:39:01;5.00;;;2.90;;
77117;SDS011;66072;50.238;19.228;2023-03-29T11:41:38;5.00;;;2.70;;
77117;SDS011;66072;50.238;19.228;2023-03-29T11:46:53;4.30;;;2.60;;
77117;SDS011;66072;50.238;19.228;2023-03-29T11:49:33;4.80;;;2.70;;
77117;SDS011;66072;50.238;19.228;2023-03-29T11:52:11;3.90;;;2.00;;
77117;SDS011;66072;50.238;19.228;2023-03-29T11:57:35;4.00;;;2.30;;
77117;SDS011;66072;50.238;19.228;2023-03-29T12:00:20;5.00;;;3.00;;
77117;SDS011;66072;50.238;19.228;2023-03-29T12:03:09;3.30;;;1.80;;
77117;SDS011;66072;50.238;19.228;2023-03-29T12:05:43;4.10;;;2.40;;
77117;SDS011;66072;50.238;19.228;2023-03-29T12:08:15;4.20;;;2.30;;
77117;SDS011;66072;50.238;19.228;2023-03-29T12:10:48;4.70;;;2.40;;
77117;SDS011;66072;50.238;19.228;2023-03-29T12:13:23;3.70;;;1.70;;
77117;SDS011;66072;50.238;19.228;2023-03-29T12:16:00;4.30;;;2.20;;
77117;SDS011;66072;50.238;19.228;2023-03-29T12:18:38;4.00;;;2.20;;
77117;SDS011;66072;50.238;19.228;2023-03-29T12:21:10;3.60;;;2.00;;
77117;SDS011;66072;50.238;19.228;2023-03-29T12:23:41;3.90;;;2.00;;
77117;SDS011;66072;50.238;19.228;2023-03-29T12:38:01;5.20;;;2.10;;
77117;SDS011;66072;50.238;19.228;2023-03-29T12:40:58;5.00;;;2.10;;
77117;SDS011;66072;50.238;19.228;2023-03-29T12:43:31;4.70;;;2.70;;
77117;SDS011;66072;50.238;19.228;2023-03-29T12:46:07;3.80;;;2.00;;
77117;SDS011;66072;50.238;19.228;2023-03-29T12:48:37;6.20;;;2.60;;
77117;SDS011;66072;50.238;19.228;2023-03-29T12:51:09;4.80;;;2.30;;
77117;SDS011;66072;50.238;19.228;2023-03-29T12:53:44;4.90;;;2.10;;
77117;SDS011;66072;50.238;19.228;2023-03-29T12:56:14;5.80;;;2.70;;
77117;SDS011;66072;50.238;19.228;2023-03-29T13:04:35;6.30;;;3.00;;
77117;SDS011;66072;50.238;19.228;2023-03-29T13:09:27;3.80;;;1.80;;
77117;SDS011;66072;50.238;19.228;2023-03-29T13:17:44;4.00;;;2.40;;
77117;SDS011;66072;50.238;19.228;2023-03-29T13:31:33;4.90;;;2.20;;
77117;SDS011;66072;50.238;19.228;2023-03-29T13:39:59;6.40;;;3.40;;
77117;SDS011;66072;50.238;19.228;2023-03-29T13:45:04;4.00;;;2.30;;
77117;SDS011;66072;50.238;19.228;2023-03-29T13:47:41;4.70;;;2.40;;
77117;SDS011;66072;50.238;19.228;2023-03-29T13:50:38;3.90;;;2.20;;
77117;SDS011;66072;50.238;19.228;2023-03-29T13:53:20;5.40;;;2.50;;
77117;SDS011;66072;50.238;19.228;2023-03-29T13:55:51;5.60;;;2.70;;
77117;SDS011;66072;50.238;19.228;2023-03-29T14:01:06;5.00;;;2.40;;
77117;SDS011;66072;50.238;19.228;2023-03-29T14:03:41;5.90;;;2.50;;
77117;SDS011;66072;50.238;19.228;2023-03-29T14:06:11;5.50;;;3.20;;
77117;SDS011;66072;50.238;19.228;2023-03-29T14:08:43;4.90;;;2.50;;
77117;SDS011;66072;50.238;19.228;2023-03-29T14:11:17;4.00;;;2.20;;
77117;SDS011;66072;50.238;19.228;2023-03-29T14:13:52;6.50;;;2.50;;
77117;SDS011;66072;50.238;19.228;2023-03-29T14:16:21;4.90;;;2.60;;
77117;SDS011;66072;50.238;19.228;2023-03-29T14:18:56;6.50;;;3.00;;
77117;SDS011;66072;50.238;19.228;2023-03-29T14:21:25;5.20;;;2.70;;
77117;SDS011;66072;50.238;19.228;2023-03-29T14:23:54;4.90;;;3.00;;
77117;SDS011;66072;50.238;19.228;2023-03-29T14:26:28;5.50;;;3.10;;
77117;SDS011;66072;50.238;19.228;2023-03-29T14:28:58;4.00;;;2.10;;
77117;SDS011;66072;50.238;19.228;2023-03-29T14:31:31;4.80;;;3.20;;
77117;SDS011;66072;50.238;19.228;2023-03-29T14:34:02;5.70;;;2.30;;
77117;SDS011;66072;50.238;19.228;2023-03-29T14:36:32;4.80;;;3.00;;
77117;SDS011;66072;50.238;19.228;2023-03-29T14:39:02;5.30;;;3.00;;
77117;SDS011;66072;50.238;19.228;2023-03-29T14:41:32;5.20;;;2.70;;
77117;SDS011;66072;50.238;19.228;2023-03-29T14:44:03;4.60;;;2.00;;
77117;SDS011;66072;50.238;19.228;2023-03-29T14:46:32;7.60;;;3.40;;
77117;SDS011;66072;50.238;19.228;2023-03-29T14:49:01;4.20;;;2.40;;
77117;SDS011;66072;50.238;19.228;2023-03-29T14:51:30;5.80;;;2.80;;
77117;SDS011;66072;50.238;19.228;2023-03-29T14:53:58;4.40;;;2.50;;
77117;SDS011;66072;50.238;19.228;2023-03-29T14:56:28;5.20;;;2.40;;
77117;SDS011;66072;50.238;19.228;2023-03-29T14:58:57;5.70;;;2.60;;
77117;SDS011;66072;50.238;19.228;2023-03-29T15:01:26;4.20;;;2.50;;
77117;SDS011;66072;50.238;19.228;2023-03-29T15:03:55;4.70;;;2.00;;
77117;SDS011;66072;50.238;19.228;2023-03-29T15:06:28;5.10;;;2.60;;
77117;SDS011;66072;50.238;19.228;2023-03-29T15:08:57;4.30;;;2.20;;
77117;SDS011;66072;50.238;19.228;2023-03-29T15:11:32;3.80;;;2.00;;
77117;SDS011;66072;50.238;19.228;2023-03-29T15:14:02;5.70;;;2.60;;
77117;SDS011;66072;50.238;19.228;2023-03-29T15:16:31;5.20;;;2.70;;
77117;SDS011;66072;50.238;19.228;2023-03-29T15:18:59;4.70;;;2.50;;
77117;SDS011;66072;50.238;19.228;2023-03-29T15:21:30;5.10;;;2.60;;
77117;SDS011;66072;50.238;19.228;2023-03-29T15:24:01;5.40;;;2.50;;
77117;SDS011;66072;50.238;19.228;2023-03-29T15:26:31;5.90;;;3.20;;
77117;SDS011;66072;50.238;19.228;2023-03-29T15:29:03;4.60;;;2.40;;
77117;SDS011;66072;50.238;19.228;2023-03-29T15:31:37;4.90;;;2.50;;
77117;SDS011;66072;50.238;19.228;2023-03-29T15:34:22;5.00;;;2.70;;
77117;SDS011;66072;50.238;19.228;2023-03-29T15:36:55;6.20;;;3.20;;
77117;SDS011;66072;50.238;19.228;2023-03-29T15:39:23;4.30;;;2.80;;
77117;SDS011;66072;50.238;19.228;2023-03-29T15:41:52;5.50;;;3.10;;
77117;SDS011;66072;50.238;19.228;2023-03-29T15:44:25;6.40;;;3.70;;
77117;SDS011;66072;50.238;19.228;2023-03-29T15:46:54;4.40;;;2.60;;
77117;SDS011;66072;50.238;19.228;2023-03-29T15:49:22;6.60;;;3.40;;
77117;SDS011;66072;50.238;19.228;2023-03-29T15:51:50;5.50;;;2.80;;
77117;SDS011;66072;50.238;19.228;2023-03-29T15:54:20;6.50;;;3.70;;
77117;SDS011;66072;50.238;19.228;2023-03-29T15:56:51;6.00;;;2.80;;
77117;SDS011;66072;50.238;19.228;2023-03-29T15:59:21;5.00;;;2.70;;
77117;SDS011;66072;50.238;19.228;2023-03-29T16:01:49;5.40;;;3.30;;
77117;SDS011;66072;50.238;19.228;2023-03-29T16:04:18;6.20;;;3.10;;
77117;SDS011;66072;50.238;19.228;2023-03-29T16:06:48;7.30;;;3.60;;
77117;SDS011;66072;50.238;19.228;2023-03-29T16:09:18;7.50;;;3.20;;
77117;SDS011;66072;50.238;19.228;2023-03-29T16:11:49;5.50;;;3.20;;
77117;SDS011;66072;50.238;19.228;2023-03-29T16:14:19;7.60;;;4.20;;
77117;SDS011;66072;50.238;19.228;2023-03-29T16:16:46;8.00;;;4.90;;
77117;SDS011;66072;50.238;19.228;2023-03-29T16:19:14;9.50;;;4.80;;
77117;SDS011;66072;50.238;19.228;2023-03-29T16:21:42;10.60;;;4.50;;
77117;SDS011;66072;50.238;19.228;2023-03-29T16:24:14;9.80;;;4.50;;
77117;SDS011;66072;50.238;19.228;2023-03-29T16:26:43;6.70;;;3.90;;
77117;SDS011;66072;50.238;19.228;2023-03-29T16:29:11;8.20;;;3.90;;
77117;SDS011;66072;50.238;19.228;2023-03-29T16:31:38;7.20;;;4.40;;
77117;SDS011;66072;50.238;19.228;2023-03-29T16:34:08;6.60;;;3.90;;
77117;SDS011;66072;50.238;19.228;2023-03-29T16:36:36;10.50;;;5.10;;